Time;durP1;ratioP1;P1;durP2;ratioP2;P2;SDS_P1;SDS_P2;PMS_P1;PMS_P2;Temp;Humidity;BMP_temperature;BMP_pressure;BME280_temperature;BME280_humidity;BME280_pressure;Samples;Min_cycle;Max_cycle;Signal;HPM_P1;HPM_P2
2023/12/27 00:02:18;;;;;;;0.20;0.20;;;;;;;4.78;79.48;97920.63;5036826;28;20033;-73
2023/12/27 00:04:46;;;;;;;0.30;0.30;;;;;;;4.88;79.28;97920.53;5036385;28;20036;-75
2023/12/27 00:07:14;;;;;;;0.40;0.40;;;;;;;4.93;78.79;97922.75;5036109;28;20053;-73
2023/12/27 00:09:41;;;;;;;0.30;0.30;;;;;;;4.78;79.11;97933.00;5033994;28;20049;-73
2023/12/27 00:12:10;;;;;;;0.30;0.30;;;;;;;4.73;79.49;97928.19;5032356;28;20402;-75
2023/12/27 00:14:39;;;;;;;0.40;0.40;;;;;;;4.63;79.92;97931.88;5031028;28;20049;-73
2023/12/27 00:17:07;;;;;;;0.32;0.32;;;;;;;4.63;79.92;97942.44;5032984;28;20054;-73
2023/12/27 00:19:35;;;;;;;0.32;0.32;;;;;;;4.56;80.16;97929.00;5031860;28;20037;-73
2023/12/27 00:22:03;;;;;;;0.20;0.20;;;;;;;4.57;80.32;97943.06;5028460;28;20038;-73
2023/12/27 00:24:31;;;;;;;0.30;0.30;;;;;;;4.54;80.46;97944.16;5032445;28;20037;-73
2023/12/27 00:26:58;;;;;;;0.45;0.45;;;;;;;4.54;80.46;97938.88;5032219;28;20038;-73
2023/12/27 00:29:27;;;;;;;0.40;0.40;;;;;;;4.58;80.56;97955.25;5032204;28;20065;-73
2023/12/27 00:31:55;;;;;;;0.40;0.40;;;;;;;4.49;80.92;97945.56;5030511;28;20049;-74
2023/12/27 00:34:23;;;;;;;0.30;0.30;;;;;;;4.64;80.50;97955.50;5028149;28;20100;-75
2023/12/27 00:36:51;;;;;;;0.30;0.30;;;;;;;4.72;79.87;97954.75;5044293;28;20049;-74
2023/12/27 00:39:23;;;;;;;0.30;0.30;;;;;;;4.65;80.08;97965.13;5027042;28;20045;-74
2023/12/27 00:41:51;;;;;;;0.40;0.40;;;;;;;4.61;80.65;97965.53;5030594;28;20057;-74
2023/12/27 00:44:19;;;;;;;0.20;0.20;;;;;;;4.54;81.23;97964.47;5031725;28;20125;-75
2023/12/27 00:46:48;;;;;;;0.30;0.30;;;;;;;4.51;81.32;97965.59;5032178;28;20051;-73
2023/12/27 00:49:16;;;;;;;0.20;0.20;;;;;;;4.52;80.86;97958.50;5026541;28;20116;-73
2023/12/27 00:51:44;;;;;;;0.22;0.22;;;;;;;4.48;81.09;97965.88;5031597;28;20129;-73
2023/12/27 00:54:12;;;;;;;0.32;0.32;;;;;;;4.61;80.27;97960.25;5039370;28;20124;-73
2023/12/27 00:56:39;;;;;;;0.28;0.28;;;;;;;4.56;80.28;97962.53;5032202;28;20044;-73
2023/12/27 00:59:07;;;;;;;0.40;0.40;;;;;;;4.41;81.06;97959.53;5030269;28;20060;-74
2023/12/27 01:01:35;;;;;;;0.30;0.30;;;;;;;4.47;80.52;97968.66;5031852;28;20064;-73
2023/12/27 01:04:04;;;;;;;0.30;0.30;;;;;;;4.56;79.85;97952.78;5031324;28;20117;-73
2023/12/27 01:06:32;;;;;;;0.40;0.40;;;;;;;4.51;79.84;97977.97;5030457;28;20117;-74
2023/12/27 01:09:00;;;;;;;0.25;0.25;;;;;;;4.58;79.93;97982.53;5031392;28;20096;-75
2023/12/27 01:11:28;;;;;;;0.22;0.22;;;;;;;4.54;79.93;97981.16;5025810;28;20072;-73
2023/12/27 01:13:56;;;;;;;0.20;0.20;;;;;;;4.51;79.60;97985.91;5031560;28;20125;-73
2023/12/27 01:16:24;;;;;;;0.35;0.35;;;;;;;4.47;79.61;97985.34;5031725;28;20042;-73
2023/12/27 01:18:52;;;;;;;0.50;0.47;;;;;;;4.39;79.57;97983.47;5031865;28;20045;-73
2023/12/27 01:21:22;;;;;;;0.30;0.30;;;;;;;4.22;79.89;97980.75;5028013;28;20049;-73
2023/12/27 01:23:49;;;;;;;0.30;0.30;;;;;;;4.26;79.90;97984.75;5030300;28;20041;-73
2023/12/27 01:26:17;;;;;;;0.30;0.30;;;;;;;4.17;79.71;97997.03;5033369;28;20127;-73
2023/12/27 01:28:44;;;;;;;0.40;0.40;;;;;;;4.05;80.41;97999.00;5037739;28;20061;-73
2023/12/27 01:31:12;;;;;;;0.25;0.25;;;;;;;4.06;80.77;98003.31;5035359;28;20140;-72
2023/12/27 01:33:40;;;;;;;0.28;0.28;;;;;;;4.03;81.23;98008.06;5036386;28;20116;-73
2023/12/27 01:36:09;;;;;;;0.40;0.40;;;;;;;4.02;81.67;98012.53;5035883;28;20167;-73
2023/12/27 01:38:38;;;;;;;0.28;0.28;;;;;;;4.07;81.77;98020.00;5035366;28;20049;-74
2023/12/27 01:41:06;;;;;;;0.30;0.30;;;;;;;4.10;81.57;98017.09;5036470;28;20056;-73
2023/12/27 01:43:33;;;;;;;0.30;0.30;;;;;;;4.26;81.16;98019.94;5037514;28;20065;-73
2023/12/27 01:46:01;;;;;;;0.30;0.30;;;;;;;4.32;80.99;98021.19;5030412;28;20056;-75
2023/12/27 01:48:28;;;;;;;0.30;0.30;;;;;;;4.21;81.14;98022.19;5031394;28;20045;-73
2023/12/27 01:50:58;;;;;;;0.30;0.30;;;;;;;4.38;80.17;98024.06;5034431;28;20120;-73
2023/12/27 01:53:26;;;;;;;0.38;0.38;;;;;;;4.27;79.92;98018.97;5033917;28;20041;-73
2023/12/27 01:55:55;;;;;;;0.50;0.50;;;;;;;4.31;80.17;98032.72;5033442;28;20040;-74
2023/12/27 01:58:23;;;;;;;0.20;0.20;;;;;;;4.04;81.92;98039.63;5033494;28;20045;-73
2023/12/27 02:00:50;;;;;;;0.50;0.50;;;;;;;4.02;82.21;98036.28;5033306;28;20052;-73
2023/12/27 02:03:21;;;;;;;0.47;0.47;;;;;;;3.99;82.77;98038.38;5034679;28;20066;-73
2023/12/27 02:05:50;;;;;;;0.40;0.40;;;;;;;3.86;82.88;98032.56;5031359;28;20123;-75
2023/12/27 02:08:19;;;;;;;0.20;0.20;;;;;;;3.90;82.64;98042.72;5035379;28;20049;-74
2023/12/27 02:10:49;;;;;;;0.45;0.45;;;;;;;3.90;83.13;98037.44;5034305;28;20034;-73
2023/12/27 02:13:19;;;;;;;0.30;0.30;;;;;;;3.83;83.50;98033.69;5041960;28;20059;-73
2023/12/27 02:15:47;;;;;;;0.30;0.30;;;;;;;3.73;83.50;98048.72;5034443;28;20065;-73
2023/12/27 02:18:16;;;;;;;0.30;0.30;;;;;;;3.64;84.21;98054.81;5025476;28;20041;-74
2023/12/27 02:20:48;;;;;;;0.30;0.30;;;;;;;3.63;84.34;98053.16;5032761;28;20045;-73
2023/12/27 02:23:17;;;;;;;0.20;0.20;;;;;;;3.72;84.57;98031.22;5033399;28;20041;-76
2023/12/27 02:25:47;;;;;;;0.20;0.20;;;;;;;3.77;84.65;98036.06;5031434;28;20057;-73
2023/12/27 02:28:14;;;;;;;0.40;0.40;;;;;;;3.76;84.59;98029.09;5034295;28;20041;-74
2023/12/27 02:30:42;;;;;;;0.30;0.30;;;;;;;3.82;84.04;98045.22;5034507;28;20037;-75
2023/12/27 02:33:10;;;;;;;0.30;0.30;;;;;;;3.97;83.04;98035.88;5033232;28;20049;-74
2023/12/27 02:35:38;;;;;;;0.30;0.30;;;;;;;3.94;83.65;98028.25;5034484;28;20042;-73
2023/12/27 02:38:05;;;;;;;0.32;0.32;;;;;;;4.08;82.96;98029.59;5033208;28;20144;-74
2023/12/27 02:40:34;;;;;;;0.20;0.20;;;;;;;4.01;83.02;98037.25;5033152;28;20038;-74
2023/12/27 02:43:04;;;;;;;0.32;0.32;;;;;;;3.89;83.94;98041.03;5032608;28;20069;-74
2023/12/27 02:45:32;;;;;;;0.30;0.30;;;;;;;3.85;83.96;98049.38;5034274;28;20367;-74
2023/12/27 02:48:03;;;;;;;0.20;0.20;;;;;;;3.81;84.57;98048.00;5032893;28;20045;-75
2023/12/27 02:50:31;;;;;;;0.40;0.40;;;;;;;3.83;84.26;98036.34;5040548;28;20092;-74
2023/12/27 02:52:59;;;;;;;0.20;0.20;;;;;;;3.95;83.59;98027.25;5042312;28;20060;-74
2023/12/27 02:55:27;;;;;;;0.40;0.40;;;;;;;3.94;83.77;98009.78;5043860;28;20045;-76
2023/12/27 02:57:56;;;;;;;0.40;0.40;;;;;;;3.93;83.99;98016.03;5042634;28;20064;-74
2023/12/27 03:00:26;;;;;;;0.30;0.30;;;;;;;3.93;84.09;98009.91;5039608;28;20529;-74
2023/12/27 03:02:55;;;;;;;0.30;0.30;;;;;;;4.00;83.83;98003.91;5041408;28;20037;-74
2023/12/27 03:05:23;;;;;;;0.40;0.40;;;;;;;4.02;83.79;98009.88;5042886;28;20052;-74
2023/12/27 03:07:51;;;;;;;0.20;0.20;;;;;;;3.95;83.79;98013.22;5041599;28;20042;-75
2023/12/27 03:10:18;;;;;;;0.30;0.30;;;;;;;3.92;83.89;98011.72;5040251;28;20049;-74
2023/12/27 03:12:46;;;;;;;0.30;0.30;;;;;;;3.89;84.00;98012.00;5041733;28;20071;-73
2023/12/27 03:15:14;;;;;;;0.20;0.20;;;;;;;3.91;84.08;98009.22;5032363;28;20566;-73
2023/12/27 03:17:43;;;;;;;0.45;0.45;;;;;;;3.91;83.81;98017.13;5032475;28;20042;-74
2023/12/27 03:20:11;;;;;;;0.30;0.30;;;;;;;3.97;83.72;98020.03;5033315;28;20179;-74
2023/12/27 03:22:39;;;;;;;0.30;0.30;;;;;;;4.02;83.78;98020.44;5032231;28;20570;-74
2023/12/27 03:25:07;;;;;;;0.40;0.40;;;;;;;4.05;83.50;98027.22;5031795;28;20119;-74
2023/12/27 03:27:35;;;;;;;0.30;0.30;;;;;;;4.04;83.19;98020.31;5033389;28;20124;-74
2023/12/27 03:30:04;;;;;;;0.50;0.50;;;;;;;4.13;83.02;98008.03;5033130;28;20038;-75
2023/12/27 03:32:32;;;;;;;0.30;0.30;;;;;;;4.36;82.22;98009.34;5031681;28;20045;-72
2023/12/27 03:35:02;;;;;;;0.30;0.30;;;;;;;4.19;81.56;98012.75;5032837;28;20068;-73
2023/12/27 03:37:30;;;;;;;0.40;0.40;;;;;;;3.89;82.37;98009.34;5032816;28;20040;-74
2023/12/27 03:39:58;;;;;;;0.32;0.32;;;;;;;3.60;83.17;98017.31;5032554;28;20041;-74
2023/12/27 03:42:25;;;;;;;0.20;0.20;;;;;;;3.55;83.76;98008.97;5031719;28;20065;-73
2023/12/27 03:44:53;;;;;;;0.20;0.20;;;;;;;3.59;84.05;98013.03;5033055;28;20136;-74
2023/12/27 03:47:21;;;;;;;0.10;0.10;;;;;;;3.63;84.22;98006.47;5036081;28;20044;-73
2023/12/27 03:49:48;;;;;;;0.20;0.20;;;;;;;3.72;84.24;98004.81;5037279;28;20076;-74
2023/12/27 03:52:17;;;;;;;0.47;0.47;;;;;;;3.78;84.01;98012.16;5034782;28;20537;-74
2023/12/27 03:54:45;;;;;;;0.20;0.20;;;;;;;3.84;83.87;98003.66;5028324;28;20037;-73
2023/12/27 03:57:12;;;;;;;0.28;0.28;;;;;;;3.92;83.60;98003.78;5031581;28;20072;-73
2023/12/27 03:59:40;;;;;;;0.30;0.30;;;;;;;3.98;83.32;98005.03;5031310;28;20124;-73
2023/12/27 04:02:09;;;;;;;0.30;0.30;;;;;;;4.05;83.12;98008.75;5032225;28;20124;-73
2023/12/27 04:04:38;;;;;;;0.38;0.38;;;;;;;4.07;82.75;97998.88;5032332;28;20046;-73
2023/12/27 04:07:06;;;;;;;0.30;0.30;;;;;;;4.12;82.86;98009.03;5033359;28;20049;-74
2023/12/27 04:09:39;;;;;;;0.40;0.40;;;;;;;4.07;82.36;98010.28;5031557;28;20052;-73
2023/12/27 04:12:07;;;;;;;0.30;0.30;;;;;;;4.04;82.37;98005.31;5031647;28;20045;-73
2023/12/27 04:14:35;;;;;;;0.38;0.38;;;;;;;4.13;82.41;98005.41;5031905;28;20033;-73
2023/12/27 04:17:02;;;;;;;0.40;0.40;;;;;;;3.90;82.95;98011.03;5032079;28;20042;-75
2023/12/27 04:19:30;;;;;;;0.20;0.20;;;;;;;3.93;83.24;98013.38;5031024;28;20496;-73
2023/12/27 04:21:58;;;;;;;0.30;0.30;;;;;;;3.98;83.01;98021.69;5030701;28;20045;-74
2023/12/27 04:24:25;;;;;;;0.73;0.32;;;;;;;4.00;82.68;98018.91;5032001;28;20052;-74
2023/12/27 04:26:54;;;;;;;0.30;0.30;;;;;;;3.92;83.01;98019.63;5032465;28;20112;-73
2023/12/27 04:29:22;;;;;;;0.40;0.40;;;;;;;3.88;83.30;98015.59;5030595;28;20132;-73
2023/12/27 04:31:49;;;;;;;0.35;0.35;;;;;;;3.99;83.45;98019.88;5030354;28;20491;-76
2023/12/27 04:34:18;;;;;;;0.30;0.30;;;;;;;3.95;82.98;98023.78;5030073;28;20037;-73
2023/12/27 04:36:45;;;;;;;0.30;0.30;;;;;;;3.90;83.17;98021.59;5032050;28;20052;-73
2023/12/27 04:39:13;;;;;;;0.40;0.40;;;;;;;3.97;82.80;98027.94;5030304;28;20149;-74
2023/12/27 04:41:41;;;;;;;0.30;0.30;;;;;;;3.87;83.02;98024.50;5031674;28;20496;-75
2023/12/27 04:44:10;;;;;;;0.22;0.22;;;;;;;3.85;83.36;98020.31;5031312;28;20506;-75
2023/12/27 04:46:38;;;;;;;0.52;0.52;;;;;;;3.89;82.99;98016.44;5030600;28;20521;-74
2023/12/27 04:49:08;;;;;;;0.45;0.45;;;;;;;3.80;83.53;98019.94;5031491;28;20060;-73
2023/12/27 04:51:36;;;;;;;0.22;0.22;;;;;;;3.84;83.58;98024.78;5031700;28;20041;-73
2023/12/27 04:54:04;;;;;;;0.40;0.40;;;;;;;3.85;83.41;98022.97;5031337;28;20567;-74
2023/12/27 04:56:32;;;;;;;0.20;0.20;;;;;;;3.86;83.08;98025.47;5030419;28;20397;-74
2023/12/27 04:59:00;;;;;;;0.30;0.30;;;;;;;3.92;83.41;98021.44;5029939;28;20053;-73
2023/12/27 05:01:32;;;;;;;0.30;0.30;;;;;;;3.87;83.16;98013.94;5023256;28;20567;-74
2023/12/27 05:03:59;;;;;;;0.30;0.30;;;;;;;3.84;83.08;98013.41;5029814;28;20081;-75
2023/12/27 05:06:27;;;;;;;0.47;0.47;;;;;;;3.87;83.53;98005.19;5030018;28;20497;-75
2023/12/27 05:08:55;;;;;;;0.38;0.38;;;;;;;3.85;83.20;98010.59;5032124;28;20099;-73
2023/12/27 05:11:23;;;;;;;0.43;0.43;;;;;;;3.81;83.60;98014.53;5027895;28;20072;-74
2023/12/27 05:13:51;;;;;;;0.32;0.32;;;;;;;3.83;83.12;98012.56;5031692;28;20033;-74
2023/12/27 05:16:19;;;;;;;0.40;0.40;;;;;;;3.85;83.20;98018.53;5031763;28;20136;-75
2023/12/27 05:18:47;;;;;;;0.43;0.43;;;;;;;3.89;82.97;98024.38;5032061;28;20069;-75
2023/12/27 05:21:17;;;;;;;0.30;0.30;;;;;;;3.96;82.78;98034.19;5030668;28;20485;-74
2023/12/27 05:23:45;;;;;;;0.40;0.40;;;;;;;4.01;82.29;98026.69;5030134;28;20045;-75
2023/12/27 05:26:12;;;;;;;0.32;0.32;;;;;;;4.06;82.49;98023.63;5030872;28;20041;-75
2023/12/27 05:28:41;;;;;;;0.50;0.50;;;;;;;4.01;81.92;98031.97;5030813;28;20412;-75
2023/12/27 05:31:08;;;;;;;0.40;0.40;;;;;;;3.99;82.25;98031.28;5030633;28;20120;-74
2023/12/27 05:33:36;;;;;;;0.30;0.30;;;;;;;3.99;81.85;98030.44;5030572;28;20049;-75
2023/12/27 05:36:06;;;;;;;0.20;0.20;;;;;;;3.96;81.87;98034.19;5030762;28;20049;-75
2023/12/27 05:38:34;;;;;;;0.35;0.35;;;;;;;3.98;82.21;98048.09;5030911;28;20037;-75
2023/12/27 05:41:01;;;;;;;0.38;0.38;;;;;;;4.01;82.06;98044.34;5030876;28;20117;-75
2023/12/27 05:43:29;;;;;;;0.25;0.25;;;;;;;4.14;82.12;98050.16;5030856;28;20128;-75
2023/12/27 05:45:57;;;;;;;0.28;0.28;;;;;;;4.01;80.97;98039.06;5030780;28;20048;-75
2023/12/27 05:48:24;;;;;;;0.38;0.38;;;;;;;3.87;81.17;98040.34;5030803;28;20042;-74
2023/12/27 05:50:52;;;;;;;0.40;0.40;;;;;;;3.78;81.73;98041.19;5030834;28;20042;-75
2023/12/27 05:53:21;;;;;;;0.30;0.30;;;;;;;3.83;82.12;98052.19;5030327;28;20041;-75
2023/12/27 05:55:49;;;;;;;0.25;0.25;;;;;;;3.78;81.71;98046.47;5030835;28;20431;-74
2023/12/27 05:58:17;;;;;;;0.32;0.32;;;;;;;3.86;81.95;98040.47;5030500;28;20046;-75
2023/12/27 06:00:44;;;;;;;0.30;0.30;;;;;;;3.87;82.00;98042.97;5030556;28;20041;-74
2023/12/27 06:03:12;;;;;;;0.20;0.20;;;;;;;3.98;81.38;98045.47;5029297;28;20037;-74
2023/12/27 06:05:40;;;;;;;0.30;0.30;;;;;;;3.77;81.25;98051.88;5030625;28;20481;-74
2023/12/27 06:08:08;;;;;;;0.43;0.43;;;;;;;3.74;81.67;98050.34;5029044;28;20056;-75
2023/12/27 06:10:37;;;;;;;0.45;0.45;;;;;;;3.77;81.33;98054.53;5030440;28;20405;-75
2023/12/27 06:13:05;;;;;;;0.22;0.22;;;;;;;3.84;80.90;98043.25;5030475;28;20408;-75
2023/12/27 06:15:33;;;;;;;0.30;0.30;;;;;;;3.77;80.86;98055.34;5030866;28;20067;-75
2023/12/27 06:18:00;;;;;;;0.30;0.30;;;;;;;3.60;81.37;98062.19;5030409;28;20073;-74
2023/12/27 06:20:29;;;;;;;0.40;0.40;;;;;;;3.65;81.15;98065.22;5030351;28;20042;-74
2023/12/27 06:22:56;;;;;;;0.20;0.20;;;;;;;3.48;81.64;98068.56;5031005;28;20485;-74
2023/12/27 06:25:24;;;;;;;0.40;0.40;;;;;;;3.39;82.13;98071.22;5022429;28;20037;-74
2023/12/27 06:27:54;;;;;;;0.20;0.20;;;;;;;3.35;82.74;98069.81;5030789;28;20117;-74
2023/12/27 06:30:22;;;;;;;0.38;0.38;;;;;;;3.28;83.06;98064.25;5030168;28;20046;-74
2023/12/27 06:32:50;;;;;;;0.40;0.40;;;;;;;3.33;82.91;98068.13;5030857;28;20517;-74
2023/12/27 06:35:18;;;;;;;0.30;0.30;;;;;;;3.47;81.92;98064.25;5030833;28;20505;-74
2023/12/27 06:37:45;;;;;;;2.67;0.40;;;;;;;3.40;82.28;98062.31;5034424;28;20045;-74
2023/12/27 06:40:14;;;;;;;0.30;0.30;;;;;;;3.40;82.47;98064.97;5034659;28;20053;-74
2023/12/27 06:42:41;;;;;;;0.65;0.65;;;;;;;3.32;82.51;98055.91;5035111;28;20132;-74
2023/12/27 06:45:11;;;;;;;0.20;0.20;;;;;;;3.26;82.78;98055.66;5033983;28;20497;-74
2023/12/27 06:47:39;;;;;;;0.20;0.20;;;;;;;3.24;82.92;98057.56;5036730;28;20041;-74
2023/12/27 06:50:08;;;;;;;0.30;0.30;;;;;;;3.18;83.08;98050.22;5032797;28;20121;-74
2023/12/27 06:52:35;;;;;;;0.10;0.10;;;;;;;3.21;83.10;98048.16;5033632;28;20049;-74
2023/12/27 06:55:04;;;;;;;0.30;0.30;;;;;;;3.44;82.65;98053.16;5033537;28;20048;-74
2023/12/27 06:57:32;;;;;;;0.52;0.52;;;;;;;3.28;81.75;98065.09;5033457;28;20049;-74
2023/12/27 06:59:59;;;;;;;0.30;0.30;;;;;;;3.10;81.55;98061.47;5032054;28;20041;-74
2023/12/27 07:02:28;;;;;;;0.40;0.40;;;;;;;3.03;81.94;98070.03;5033628;28;20056;-74
2023/12/27 07:04:56;;;;;;;0.20;0.20;;;;;;;2.94;82.62;98071.69;5029609;28;20103;-74
2023/12/27 07:07:24;;;;;;;0.30;0.30;;;;;;;2.90;82.92;98070.31;5033487;28;20459;-74
2023/12/27 07:09:51;;;;;;;0.30;0.30;;;;;;;2.96;82.92;98082.94;5033199;28;20512;-74
2023/12/27 07:12:19;;;;;;;0.35;0.35;;;;;;;2.96;83.25;98080.28;5033004;28;20128;-74
2023/12/27 07:14:46;;;;;;;0.55;0.55;;;;;;;2.98;83.49;98082.81;5033277;28;20050;-74
2023/12/27 07:17:14;;;;;;;0.30;0.30;;;;;;;3.03;83.22;98081.41;5033252;28;20057;-74
2023/12/27 07:19:43;;;;;;;0.30;0.30;;;;;;;3.07;83.26;98085.47;5033539;28;20037;-74
2023/12/27 07:22:11;;;;;;;0.30;0.30;;;;;;;3.13;83.30;98090.19;5033161;28;20467;-74
2023/12/27 07:24:38;;;;;;;0.52;0.38;;;;;;;3.21;83.12;98093.00;5033044;28;20045;-74
2023/12/27 07:27:07;;;;;;;0.25;0.25;;;;;;;3.32;82.61;98086.75;5032921;28;20069;-74
2023/12/27 07:29:36;;;;;;;0.50;0.50;;;;;;;3.25;82.27;98091.72;5033029;28;20060;-74
2023/12/27 07:32:05;;;;;;;0.20;0.20;;;;;;;3.10;82.14;98085.19;5032916;28;20283;-74
2023/12/27 07:34:33;;;;;;;0.30;0.30;;;;;;;3.07;82.53;98098.66;5032799;28;20124;-74
2023/12/27 07:37:03;;;;;;;0.20;0.20;;;;;;;3.10;82.33;98093.09;5032885;28;20041;-74
2023/12/27 07:39:32;;;;;;;0.40;0.40;;;;;;;3.17;82.18;98086.31;5032848;28;20069;-74
2023/12/27 07:42:00;;;;;;;0.45;0.32;;;;;;;3.16;81.97;98091.72;5033044;28;20046;-74
2023/12/27 07:44:28;;;;;;;0.35;0.35;;;;;;;3.21;82.58;98087.72;5032341;28;20440;-75
2023/12/27 07:46:56;;;;;;;0.40;0.40;;;;;;;3.17;82.54;98091.59;5032329;28;20046;-74
2023/12/27 07:49:25;;;;;;;0.20;0.20;;;;;;;3.20;82.51;98080.78;5032828;28;20042;-75
2023/12/27 07:51:52;;;;;;;0.30;0.30;;;;;;;3.27;82.32;98078.41;5032526;28;20095;-75
2023/12/27 07:54:21;;;;;;;0.20;0.20;;;;;;;3.25;82.13;98085.63;5032351;28;20041;-74
2023/12/27 07:56:49;;;;;;;0.45;0.45;;;;;;;3.19;82.28;98088.81;5035122;28;20037;-74
2023/12/27 07:59:17;;;;;;;0.50;0.50;;;;;;;3.21;82.58;98094.78;5033092;28;20053;-74
2023/12/27 08:01:45;;;;;;;0.30;0.30;;;;;;;3.15;82.63;98096.16;5033280;28;20050;-74
2023/12/27 08:04:13;;;;;;;0.38;0.38;;;;;;;3.20;82.37;98108.94;5032208;28;20057;-74
2023/12/27 08:06:41;;;;;;;0.43;0.43;;;;;;;3.31;82.18;98101.75;5032829;28;20048;-74
2023/12/27 08:09:10;;;;;;;0.30;0.30;;;;;;;3.32;82.28;98103.41;5032590;28;20053;-75
2023/12/27 08:11:39;;;;;;;0.35;0.35;;;;;;;3.34;82.11;98113.81;5032189;28;20052;-74
2023/12/27 08:14:06;;;;;;;0.47;0.47;;;;;;;3.46;81.54;98096.06;5032018;28;20124;-74
2023/12/27 08:16:34;;;;;;;0.25;0.25;;;;;;;3.46;81.58;98091.63;5032233;28;20045;-74
2023/12/27 08:19:02;;;;;;;0.20;0.20;;;;;;;3.48;81.59;98091.47;5032401;28;20049;-74
2023/12/27 08:21:29;;;;;;;0.40;0.40;;;;;;;3.63;81.29;98090.13;5028740;28;20479;-74
2023/12/27 08:23:57;;;;;;;0.32;0.32;;;;;;;3.66;80.74;98089.81;5032180;28;20041;-74
2023/12/27 08:26:25;;;;;;;0.30;0.30;;;;;;;3.67;81.01;98096.75;5031890;28;20050;-74
2023/12/27 08:28:54;;;;;;;0.40;0.40;;;;;;;3.77;80.81;98087.03;5032108;28;20037;-74
2023/12/27 08:31:21;;;;;;;0.30;0.30;;;;;;;3.71;80.71;98094.69;5031610;28;20075;-74
2023/12/27 08:33:50;;;;;;;0.40;0.40;;;;;;;3.62;81.06;98093.72;5026559;28;20496;-74
2023/12/27 08:36:18;;;;;;;0.30;0.30;;;;;;;3.73;80.78;98090.94;5032023;28;20518;-75
2023/12/27 08:38:46;;;;;;;0.40;0.40;;;;;;;3.68;80.92;98088.72;5031753;28;20084;-74
2023/12/27 08:41:13;;;;;;;0.40;0.40;;;;;;;3.64;80.81;98087.31;5031552;28;20059;-74
2023/12/27 08:43:42;;;;;;;0.30;0.30;;;;;;;3.69;80.93;98089.53;5031663;28;20582;-74
2023/12/27 08:46:12;;;;;;;0.40;0.40;;;;;;;3.76;80.92;98092.44;5031727;28;20049;-74
2023/12/27 08:48:40;;;;;;;0.55;0.55;;;;;;;3.74;81.02;98091.78;5031820;28;20045;-74
2023/12/27 08:51:09;;;;;;;0.22;0.22;;;;;;;3.74;81.13;98095.22;5031568;28;20041;-74
2023/12/27 08:53:37;;;;;;;0.30;0.30;;;;;;;3.76;80.76;98095.94;5036574;28;20052;-74
2023/12/27 08:56:06;;;;;;;0.25;0.25;;;;;;;3.69;80.84;98090.38;5034952;28;20049;-75
2023/12/27 08:58:33;;;;;;;0.30;0.30;;;;;;;3.70;80.71;98088.56;5030990;28;20087;-74
2023/12/27 09:01:01;;;;;;;0.40;0.40;;;;;;;3.73;80.70;98092.75;5033551;28;20038;-74
2023/12/27 09:03:31;;;;;;;0.50;0.50;;;;;;;3.76;80.83;98097.72;5026327;28;20041;-74
2023/12/27 09:05:59;;;;;;;0.40;0.40;;;;;;;3.82;80.48;98099.81;5032898;28;20087;-74
2023/12/27 09:08:26;;;;;;;0.38;0.38;;;;;;;3.96;80.28;98091.47;5031499;28;20071;-74
2023/12/27 09:10:54;;;;;;;0.20;0.20;;;;;;;4.13;79.90;98092.56;5031296;28;20061;-74
2023/12/27 09:13:22;;;;;;;0.40;0.40;;;;;;;4.18;79.07;98092.97;5030956;28;20053;-74
2023/12/27 09:15:49;;;;;;;0.50;0.50;;;;;;;4.28;78.93;98091.13;5031646;28;20033;-74
2023/12/27 09:18:17;;;;;;;0.50;0.50;;;;;;;4.23;78.97;98083.66;5031617;28;20390;-74
2023/12/27 09:20:46;;;;;;;0.35;0.35;;;;;;;4.28;79.17;98086.69;5031555;28;20069;-74
2023/12/27 09:23:13;;;;;;;0.20;0.20;;;;;;;4.32;79.13;98092.53;5031052;28;20476;-74
2023/12/27 09:25:41;;;;;;;0.30;0.30;;;;;;;4.37;78.04;98091.09;5031374;28;20401;-74
2023/12/27 09:28:09;;;;;;;0.32;0.32;;;;;;;4.41;78.28;98086.38;5031088;28;20488;-74
2023/12/27 09:30:36;;;;;;;0.20;0.20;;;;;;;4.48;78.00;98091.91;5031508;28;20128;-74
2023/12/27 09:33:04;;;;;;;0.30;0.30;;;;;;;4.50;78.16;98089.94;5031018;28;20056;-74
2023/12/27 09:35:32;;;;;;;0.40;0.40;;;;;;;4.47;78.10;98091.06;5027151;28;20095;-74
2023/12/27 09:38:02;;;;;;;0.45;0.45;;;;;;;4.55;77.99;98090.38;5030838;28;20481;-74
2023/12/27 09:40:30;;;;;;;0.47;0.47;;;;;;;4.52;78.10;98085.38;5026877;28;20069;-74
2023/12/27 09:42:58;;;;;;;0.50;0.50;;;;;;;4.48;78.50;98079.53;5032353;28;20041;-74
2023/12/27 09:45:26;;;;;;;0.30;0.30;;;;;;;4.50;78.16;98085.50;5030939;28;20424;-74
2023/12/27 09:47:55;;;;;;;0.20;0.20;;;;;;;4.58;78.52;98067.09;5031196;28;20065;-74
2023/12/27 09:50:23;;;;;;;0.22;0.22;;;;;;;4.63;78.27;98064.88;5030480;28;20041;-74
2023/12/27 09:52:52;;;;;;;0.30;0.30;;;;;;;4.73;78.05;98067.47;5030850;28;20136;-75
2023/12/27 09:55:21;;;;;;;0.30;0.30;;;;;;;4.76;77.64;98057.44;5030790;28;20045;-74
2023/12/27 09:57:50;;;;;;;0.35;0.35;;;;;;;4.86;77.23;98051.28;5030937;28;20052;-75
2023/12/27 10:00:18;;;;;;;0.30;0.30;;;;;;;4.88;77.46;98044.84;5030515;28;20046;-74
2023/12/27 10:02:47;;;;;;;0.28;0.28;;;;;;;4.99;77.11;98043.78;5031090;28;20041;-74
2023/12/27 10:05:18;;;;;;;0.30;0.30;;;;;;;5.06;76.97;98039.59;5030486;28;20057;-74
2023/12/27 10:07:46;;;;;;;0.30;0.30;;;;;;;5.10;76.82;98033.84;5031094;28;20041;-74
2023/12/27 10:10:14;;;;;;;0.50;0.50;;;;;;;5.21;76.75;98026.66;5031145;28;20412;-74
2023/12/27 10:12:55;;;;;;;0.35;0.35;;;;;;;5.31;77.08;98022.97;5034744;28;20046;-74
2023/12/27 10:15:22;;;;;;;0.30;0.30;;;;;;;5.41;76.63;98018.44;5035068;28;20048;-74
2023/12/27 10:17:50;;;;;;;0.60;0.60;;;;;;;5.48;76.13;98013.38;5035600;28;20497;-74
2023/12/27 10:20:31;;;;;;;0.20;0.20;;;;;;;5.46;75.76;98016.19;5034814;28;20052;-74
2023/12/27 10:23:00;;;;;;;0.45;0.40;;;;;;;5.51;75.58;97998.00;5034926;28;20045;-74
2023/12/27 10:25:28;;;;;;;0.32;0.32;;;;;;;5.54;75.83;97997.72;5034949;28;20064;-74
2023/12/27 10:27:57;;;;;;;0.30;0.30;;;;;;;5.66;75.37;97993.00;5035159;28;20041;-74
2023/12/27 10:30:25;;;;;;;0.40;0.40;;;;;;;5.74;75.13;97992.22;5035693;28;20056;-74
2023/12/27 10:32:57;;;;;;;0.20;0.20;;;;;;;5.77;74.73;97997.22;5036724;28;20046;-74
2023/12/27 10:35:25;;;;;;;0.20;0.20;;;;;;;5.87;74.56;97977.59;5035822;28;20063;-74
2023/12/27 10:38:00;;;;;;;0.40;0.40;;;;;;;5.89;74.62;97980.13;5035301;28;20393;-74
2023/12/27 10:40:27;;;;;;;0.38;0.38;;;;;;;5.99;73.83;97969.44;5033658;28;20346;-74
2023/12/27 10:42:55;;;;;;;0.32;0.32;;;;;;;6.02;73.73;97966.47;5034302;28;20286;-74
2023/12/27 10:45:24;;;;;;;0.40;0.40;;;;;;;6.06;73.33;97966.00;5033733;28;20095;-74
2023/12/27 10:47:58;;;;;;;0.75;0.75;;;;;;;6.05;73.12;97964.31;5034190;28;20042;-74
2023/12/27 10:50:27;;;;;;;0.32;0.32;;;;;;;6.09;73.33;97951.59;5034259;28;20124;-74
2023/12/27 10:53:01;;;;;;;0.55;0.55;;;;;;;6.15;73.20;97943.84;5034330;28;20416;-74
2023/12/27 10:55:29;;;;;;;0.57;0.57;;;;;;;6.15;73.13;97940.34;5033617;28;20037;-74
2023/12/27 10:57:57;;;;;;;0.40;0.40;;;;;;;6.13;73.09;97944.97;5033624;28;20105;-73
2023/12/27 11:00:26;;;;;;;0.30;0.30;;;;;;;6.13;73.53;97935.22;5033686;28;20046;-75
2023/12/27 11:02:55;;;;;;;0.30;0.30;;;;;;;6.20;73.29;97922.19;5036193;28;20140;-73
2023/12/27 11:05:23;;;;;;;0.30;0.30;;;;;;;6.20;72.97;97919.53;5055332;28;20040;-73
2023/12/27 11:07:52;;;;;;;0.20;0.20;;;;;;;6.20;72.92;97920.34;5056229;28;20064;-73
2023/12/27 11:10:20;;;;;;;0.32;0.30;;;;;;;6.23;72.93;97920.03;5054823;28;20053;-74
2023/12/27 11:12:48;;;;;;;0.20;0.20;;;;;;;6.32;72.79;97909.47;5053559;28;20048;-74
2023/12/27 11:15:16;;;;;;;0.30;0.30;;;;;;;6.41;72.65;97913.81;5054219;28;20064;-74
2023/12/27 11:17:46;;;;;;;0.55;0.55;;;;;;;6.46;72.68;97917.63;5056937;28;20045;-74
2023/12/27 11:20:14;;;;;;;0.20;0.20;;;;;;;6.56;71.84;97918.31;5052026;28;20059;-74
2023/12/27 11:22:43;;;;;;;0.60;0.60;;;;;;;6.58;71.79;97913.69;5053768;28;20041;-74
2023/12/27 11:25:11;;;;;;;0.60;0.60;;;;;;;6.61;71.91;97909.91;5053641;28;20041;-74
2023/12/27 11:27:40;;;;;;;0.40;0.40;;;;;;;6.59;71.84;97906.56;5036918;28;20038;-76
2023/12/27 11:30:11;;;;;;;0.30;0.30;;;;;;;6.66;71.66;97915.53;5032340;28;20049;-74
2023/12/27 11:32:40;;;;;;;0.50;0.50;;;;;;;6.66;72.05;97910.22;5033339;28;20099;-74
2023/12/27 11:35:10;;;;;;;0.20;0.20;;;;;;;6.68;72.32;97907.41;5033321;28;20135;-75
2023/12/27 11:37:41;;;;;;;0.40;0.40;;;;;;;6.68;71.82;97900.28;5036115;28;20045;-74
2023/12/27 11:40:10;;;;;;;0.30;0.30;;;;;;;6.62;72.02;97895.66;5035790;28;20059;-75
2023/12/27 11:42:38;;;;;;;0.30;0.30;;;;;;;6.68;71.74;97891.50;5036197;28;20042;-74
2023/12/27 11:45:06;;;;;;;0.30;0.30;;;;;;;6.74;71.97;97896.16;5036661;28;20057;-74
2023/12/27 11:47:34;;;;;;;0.40;0.40;;;;;;;6.85;71.85;97887.91;5036163;28;20071;-74